createdAt,value
2023-09-04T00:03:27.377Z,99250.66
2023-09-04T00:08:32.957Z,99253.47
2023-09-04T00:13:37.445Z,99250.50
2023-09-04T00:18:41.848Z,99267.88
2023-09-04T00:23:47.403Z,99264.47
2023-09-04T00:28:51.969Z,99257.44
2023-09-04T00:33:56.686Z,99264.63
2023-09-04T00:39:02.442Z,99278.09
2023-09-04T00:44:07.257Z,99278.75
2023-09-04T00:49:11.637Z,99283.19
2023-09-04T00:54:17.698Z,99281.38
2023-09-04T00:59:22.130Z,99282.22
2023-09-04T01:04:26.703Z,99276.94
2023-09-04T01:09:33.459Z,99292.03
2023-09-04T01:14:37.785Z,99288.44
2023-09-04T01:19:43.073Z,99276.47
2023-09-04T01:24:48.745Z,99274.31
2023-09-04T01:29:58.711Z,99273.16
2023-09-04T01:35:04.808Z,99280.19
2023-09-04T01:40:11.048Z,99281.03
2023-09-04T01:45:15.203Z,99289.56
2023-09-04T01:50:19.762Z,99298.88
2023-09-04T01:55:25.363Z,99274.47
2023-09-04T02:00:29.899Z,99280.38
2023-09-04T02:05:33.950Z,99281.03
2023-09-04T02:10:39.696Z,99291.84
2023-09-04T02:15:43.570Z,99288.56
2023-09-04T02:20:48.523Z,99295.09
2023-09-04T02:25:54.090Z,99309.03
2023-09-04T02:30:58.178Z,99317.72
2023-09-04T02:36:02.128Z,99319.66
2023-09-04T02:41:07.642Z,99324.91
2023-09-04T02:46:13.241Z,99331.59
2023-09-04T02:51:17.551Z,99334.72
2023-09-04T02:56:23.027Z,99317.53
2023-09-04T03:01:27.316Z,99310.03
2023-09-04T03:06:31.627Z,99303.78
2023-09-04T03:11:37.324Z,99317.22
2023-09-04T03:16:41.744Z,99300.19
2023-09-04T03:21:45.982Z,99297.56
2023-09-04T03:26:51.569Z,99303.63
2023-09-04T03:31:55.883Z,99306.91
2023-09-04T03:37:02.440Z,99314.09
2023-09-04T03:42:08.878Z,99311.16
2023-09-04T03:47:13.743Z,99301.34
2023-09-04T03:52:17.754Z,99312.47
2023-09-04T03:57:23.617Z,99330.34
2023-09-04T04:02:28.153Z,99331.69
2023-09-04T04:07:32.833Z,99347.38
2023-09-04T04:12:38.291Z,99342.81
2023-09-04T04:17:42.493Z,99342.97
2023-09-04T04:22:46.462Z,99353.78
2023-09-04T04:27:51.723Z,99359.00
2023-09-04T04:32:55.929Z,99377.00
2023-09-04T04:38:00.989Z,99379.91
2023-09-04T04:43:07.031Z,99377.13
2023-09-04T04:48:11.784Z,99386.09
2023-09-04T04:53:16.719Z,99380.41
2023-09-04T04:58:23.186Z,99376.97
2023-09-04T05:03:28.227Z,99380.09
2023-09-04T05:08:32.232Z,99387.31
2023-09-04T05:13:37.941Z,99397.47
2023-09-04T05:18:43.020Z,99388.19
2023-09-04T05:23:48.926Z,99396.22
2023-09-04T05:28:54.694Z,99385.25
2023-09-04T05:33:58.919Z,99385.06
2023-09-04T05:39:02.840Z,99410.78
2023-09-04T05:44:08.702Z,99400.88
2023-09-04T05:49:12.940Z,99413.28
2023-09-04T05:54:16.870Z,99413.25
2023-09-04T05:59:22.995Z,99417.78
2023-09-04T06:04:27.274Z,99415.94
2023-09-04T06:09:31.588Z,99418.34
2023-09-04T06:14:36.990Z,99416.06
2023-09-04T06:19:41.282Z,99421.03
2023-09-04T06:24:45.159Z,99434.09
2023-09-04T06:29:50.748Z,99445.72
2023-09-04T06:34:54.911Z,99451.50
2023-09-04T06:39:59.051Z,99450.06
2023-09-04T06:45:04.875Z,99448.34
2023-09-04T06:50:10.588Z,99454.97
2023-09-04T06:55:14.578Z,99453.38
2023-09-04T07:00:21.298Z,99463.09
2023-09-04T07:05:25.915Z,99471.19
2023-09-04T07:10:30.622Z,99484.56
2023-09-04T07:15:35.973Z,99467.72
2023-09-04T07:20:40.307Z,99495.47
2023-09-04T07:25:44.262Z,99497.72
2023-09-04T07:30:49.742Z,99513.28
2023-09-04T07:35:56.910Z,99514.91
2023-09-04T07:41:01.681Z,99508.13
2023-09-04T07:46:07.389Z,99514.84
2023-09-04T07:51:27.422Z,99510.91
2023-09-04T07:56:42.182Z,99515.22
2023-09-04T08:01:48.351Z,99520.03
2023-09-04T08:06:52.662Z,99505.97
2023-09-04T08:11:56.868Z,99505.88
2023-09-04T08:17:02.574Z,99501.84
2023-09-04T08:22:07.093Z,99493.50
2023-09-04T08:27:11.032Z,99500.13
2023-09-04T08:32:16.548Z,99499.31
2023-09-04T08:37:20.466Z,99513.69
2023-09-04T08:42:24.797Z,99505.09
2023-09-04T08:47:31.337Z,99506.72
2023-09-04T08:52:37.829Z,99519.66
2023-09-04T08:57:43.734Z,99516.06
2023-09-04T09:02:49.161Z,99511.41
2023-09-04T09:07:54.299Z,99498.44
2023-09-04T09:12:58.246Z,99495.03
2023-09-04T09:18:04.474Z,99496.59
2023-09-04T09:23:08.664Z,99503.47
2023-09-04T09:28:13.710Z,99496.56
2023-09-04T09:33:22.786Z,99498.56
2023-09-04T09:38:29.059Z,99505.41
2023-09-04T09:43:35.569Z,99501.13
2023-09-04T09:48:42.813Z,99503.94
2023-09-04T09:53:47.618Z,99512.00
2023-09-04T09:58:52.098Z,99504.72
2023-09-04T10:03:58.116Z,99498.84
2023-09-04T10:09:03.064Z,99491.31
2023-09-04T10:14:13.647Z,99483.56
2023-09-04T10:19:23.983Z,99483.56
2023-09-04T10:24:36.141Z,99485.22
2023-09-04T10:29:50.242Z,99485.94
2023-09-04T10:34:58.034Z,99477.81
2023-09-04T10:40:03.543Z,99476.66
2023-09-04T10:45:14.663Z,99484.81
2023-09-04T10:50:35.264Z,99489.91
2023-09-04T10:55:40.283Z,99482.38
2023-09-04T11:00:45.800Z,99488.25
2023-09-04T11:06:21.310Z,99476.66
2023-09-04T11:11:27.198Z,99474.56
2023-09-04T11:16:50.326Z,99473.41
2023-09-04T11:21:55.832Z,99477.63
2023-09-04T11:26:59.961Z,99471.91
2023-09-04T11:37:34.675Z,99467.59
2023-09-04T11:42:39.195Z,99465.63
2023-09-04T11:47:44.417Z,99463.16
2023-09-04T11:52:50.232Z,99464.94
2023-09-04T11:57:54.623Z,99472.78
2023-09-04T12:02:59.279Z,99474.56
2023-09-04T12:08:05.258Z,99465.34
2023-09-04T12:13:10.130Z,99466.69
2023-09-04T12:18:14.553Z,99473.06
2023-09-04T12:23:20.497Z,99471.91
2023-09-04T12:28:28.345Z,99465.28
2023-09-04T12:33:32.522Z,99462.97
2023-09-04T12:38:38.311Z,99455.25
2023-09-04T12:43:43.247Z,99451.84
2023-09-04T12:48:48.045Z,99455.41
2023-09-04T12:53:53.701Z,99448.84
2023-09-04T12:58:57.915Z,99441.63
2023-09-04T13:04:05.251Z,99439.56
2023-09-04T13:09:11.236Z,99435.47
2023-09-04T13:14:15.749Z,99452.31
2023-09-04T13:19:20.374Z,99436.00
2023-09-04T13:24:25.695Z,99426.34
2023-09-04T13:29:29.971Z,99432.16
2023-09-04T13:34:34.487Z,99428.53
2023-09-04T13:39:40.616Z,99426.16
2023-09-04T13:44:44.488Z,99419.47
2023-09-04T13:49:48.471Z,99420.91
2023-09-04T13:54:56.699Z,99427.09
2023-09-04T14:00:00.920Z,99422.56
2023-09-04T14:05:06.150Z,99422.25
2023-09-04T14:10:11.674Z,99424.75
2023-09-04T14:15:16.130Z,99420.69
2023-09-04T14:20:20.245Z,99425.28
2023-09-04T14:25:25.762Z,99423.59
2023-09-04T14:30:30.052Z,99430.66
2023-09-04T14:35:35.050Z,99425.63
2023-09-04T14:40:48.381Z,99418.31
2023-09-04T14:46:04.296Z,99413.94
2023-09-04T14:51:14.074Z,99407.28
2023-09-04T14:56:19.490Z,99412.34
2023-09-04T15:01:24.916Z,99410.31
2023-09-04T15:06:29.153Z,99412.16
2023-09-04T15:11:35.661Z,99414.31
2023-09-04T15:16:40.084Z,99426.97
2023-09-04T15:21:44.315Z,99420.09
2023-09-04T15:26:49.869Z,99418.75
2023-09-04T15:31:54.046Z,99409.88
2023-09-04T15:36:58.390Z,99417.22
2023-09-04T15:42:03.839Z,99408.88
2023-09-04T15:47:08.416Z,99392.56
2023-09-04T15:52:12.534Z,99387.28
2023-09-04T15:57:18.011Z,99392.41
2023-09-04T16:02:22.337Z,99395.09
2023-09-04T16:07:26.817Z,99401.22
2023-09-04T16:12:32.513Z,99396.56
2023-09-04T16:17:37.305Z,99397.34
2023-09-04T16:22:42.259Z,99406.22
2023-09-04T16:27:47.627Z,99401.94
2023-09-04T16:32:52.389Z,99399.91
2023-09-04T16:37:57.083Z,99399.59
2023-09-04T16:43:02.370Z,99399.84
2023-09-04T16:48:07.957Z,99403.34
2023-09-04T16:53:12.181Z,99402.81
2023-09-04T16:58:17.599Z,99401.25
2023-09-04T17:03:22.194Z,99406.19
2023-09-04T17:08:26.814Z,99410.59
2023-09-04T17:13:33.307Z,99420.31
2023-09-04T17:18:37.710Z,99414.25
2023-09-04T17:23:41.677Z,99416.47
2023-09-04T17:28:47.330Z,99419.50
2023-09-04T17:33:51.878Z,99424.84
2023-09-04T17:38:55.775Z,99431.81
2023-09-04T17:44:01.269Z,99422.75
2023-09-04T17:49:06.962Z,99428.59
2023-09-04T17:54:11.155Z,99434.31
2023-09-04T17:59:16.405Z,99433.91
2023-09-04T18:04:20.582Z,99438.16
2023-09-04T18:09:24.742Z,99441.16
2023-09-04T18:14:31.515Z,99438.94
2023-09-04T18:19:37.439Z,99443.59
2023-09-04T18:24:41.480Z,99438.28
2023-09-04T18:29:46.922Z,99435.03
2023-09-04T18:34:50.786Z,99444.28
2023-09-04T18:39:54.850Z,99445.47
2023-09-04T18:45:00.605Z,99449.00
2023-09-04T18:50:05.920Z,99448.69
2023-09-04T18:55:10.424Z,99450.50
2023-09-04T19:00:17.016Z,99438.22
2023-09-04T19:05:21.380Z,99439.06
2023-09-04T19:10:25.509Z,99431.66
2023-09-04T19:15:30.795Z,99425.63
2023-09-04T19:20:35.177Z,99431.88
2023-09-04T19:25:39.097Z,99439.59
2023-09-04T19:30:46.769Z,99442.56
2023-09-04T19:35:50.722Z,99444.06
2023-09-04T19:40:54.609Z,99441.78
2023-09-04T19:45:59.901Z,99441.78
2023-09-04T19:51:04.518Z,99440.66
2023-09-04T19:56:08.808Z,99441.97
2023-09-04T20:01:14.405Z,99441.81
2023-09-04T20:06:20.272Z,99446.88
2023-09-04T20:11:26.956Z,99439.34
2023-09-04T20:16:32.842Z,99436.88
2023-09-04T20:21:37.186Z,99444.94
2023-09-04T20:26:49.125Z,99447.88
2023-09-04T20:31:55.329Z,99447.06
2023-09-04T20:37:00.773Z,99459.16
2023-09-04T20:42:08.210Z,99461.13
2023-09-04T20:47:13.714Z,99462.63
2023-09-04T20:52:17.856Z,99464.91
2023-09-04T20:57:21.830Z,99467.69
2023-09-04T21:02:27.682Z,99465.66
2023-09-04T21:07:30.551Z,99466.66
2023-09-04T21:12:52.828Z,99469.78
2023-09-04T21:18:15.693Z,99470.06
2023-09-04T21:23:37.153Z,99461.72
2023-09-04T21:28:58.621Z,99467.44
2023-09-04T21:34:21.867Z,99470.34
2023-09-04T21:39:43.285Z,99464.97
2023-09-04T21:45:05.075Z,99470.97
2023-09-04T21:50:28.424Z,99472.13
2023-09-04T21:55:49.628Z,99475.84
2023-09-04T22:01:11.382Z,99472.72
2023-09-04T22:06:34.125Z,99470.25
2023-09-04T22:11:55.636Z,99476.97
2023-09-04T22:17:16.902Z,99468.59
2023-09-04T22:22:40.080Z,99466.94
2023-09-04T22:28:01.566Z,99465.28
2023-09-04T22:33:24.336Z,99458.28
2023-09-04T22:38:47.542Z,99454.16
2023-09-04T22:44:09.278Z,99457.41
2023-09-04T22:49:30.926Z,99454.75
2023-09-04T22:54:53.840Z,99447.72
2023-09-04T23:00:15.248Z,99450.19
2023-09-04T23:05:36.801Z,99452.44
2023-09-04T23:11:00.522Z,99453.56
2023-09-04T23:16:22.207Z,99464.47
2023-09-04T23:21:25.021Z,99459.88
2023-09-04T23:26:38.350Z,99456.72
2023-09-04T23:31:46.256Z,99455.91
2023-09-04T23:36:55.981Z,99454.44
2023-09-04T23:42:21.115Z,99446.38
2023-09-04T23:47:25.291Z,99439.78
2023-09-04T23:52:30.971Z,99444.50
2023-09-04T23:57:37.747Z,99433.56
